sensor_id;sensor_type;location;lat;lon;timestamp;temperature;humidity
8820;DHT22;4446;50.876;4.736;2023-04-24T00:01:47;9.20;99.90
8820;DHT22;4446;50.876;4.736;2023-04-24T00:04:14;9.20;99.90
8820;DHT22;4446;50.876;4.736;2023-04-24T00:06:42;9.30;99.90
8820;DHT22;4446;50.876;4.736;2023-04-24T00:09:10;9.20;99.90
8820;DHT22;4446;50.876;4.736;2023-04-24T00:11:37;9.30;99.90
8820;DHT22;4446;50.876;4.736;2023-04-24T00:14:04;9.30;99.90
8820;DHT22;4446;50.876;4.736;2023-04-24T00:16:31;9.30;99.90
8820;DHT22;4446;50.876;4.736;2023-04-24T00:18:58;9.20;99.90
8820;DHT22;4446;50.876;4.736;2023-04-24T00:21:26;9.20;99.90
8820;DHT22;4446;50.876;4.736;2023-04-24T00:23:53;9.30;99.90
8820;DHT22;4446;50.876;4.736;2023-04-24T00:26:21;9.30;99.90
8820;DHT22;4446;50.876;4.736;2023-04-24T00:28:48;9.30;99.90
8820;DHT22;4446;50.876;4.736;2023-04-24T00:31:15;9.30;99.90
8820;DHT22;4446;50.876;4.736;2023-04-24T00:33:42;9.20;99.90
8820;DHT22;4446;50.876;4.736;2023-04-24T00:36:09;9.20;99.90
8820;DHT22;4446;50.876;4.736;2023-04-24T00:38:36;9.20;99.90
8820;DHT22;4446;50.876;4.736;2023-04-24T00:41:03;9.30;99.90
8820;DHT22;4446;50.876;4.736;2023-04-24T00:43:32;9.40;99.90
8820;DHT22;4446;50.876;4.736;2023-04-24T00:45:59;9.40;99.90
8820;DHT22;4446;50.876;4.736;2023-04-24T00:48:27;9.30;99.90
8820;DHT22;4446;50.876;4.736;2023-04-24T00:50:54;9.30;99.90
8820;DHT22;4446;50.876;4.736;2023-04-24T00:53:23;9.20;99.90
8820;DHT22;4446;50.876;4.736;2023-04-24T00:55:50;9.10;99.90
8820;DHT22;4446;50.876;4.736;2023-04-24T00:58:18;9.10;99.90
8820;DHT22;4446;50.876;4.736;2023-04-24T01:00:49;9.00;99.90
8820;DHT22;4446;50.876;4.736;2023-04-24T01:03:19;9.00;99.90
8820;DHT22;4446;50.876;4.736;2023-04-24T01:05:47;9.00;99.90
8820;DHT22;4446;50.876;4.736;2023-04-24T01:08:14;8.90;99.90
8820;DHT22;4446;50.876;4.736;2023-04-24T01:10:41;8.90;99.90
8820;DHT22;4446;50.876;4.736;2023-04-24T01:13:10;8.90;99.90
8820;DHT22;4446;50.876;4.736;2023-04-24T01:15:37;8.90;99.90
8820;DHT22;4446;50.876;4.736;2023-04-24T01:18:06;8.90;99.90
8820;DHT22;4446;50.876;4.736;2023-04-24T01:20:34;8.80;99.90
8820;DHT22;4446;50.876;4.736;2023-04-24T01:23:03;8.90;99.90
8820;DHT22;4446;50.876;4.736;2023-04-24T01:25:30;8.90;99.90
8820;DHT22;4446;50.876;4.736;2023-04-24T01:27:58;8.80;99.90
8820;DHT22;4446;50.876;4.736;2023-04-24T01:30:25;8.80;99.90
8820;DHT22;4446;50.876;4.736;2023-04-24T01:32:53;8.80;99.90
8820;DHT22;4446;50.876;4.736;2023-04-24T01:35:20;8.80;99.90
8820;DHT22;4446;50.876;4.736;2023-04-24T01:37:47;8.80;99.90
8820;DHT22;4446;50.876;4.736;2023-04-24T01:40:15;8.80;99.90
8820;DHT22;4446;50.876;4.736;2023-04-24T01:42:43;8.90;99.90
8820;DHT22;4446;50.876;4.736;2023-04-24T01:45:11;8.90;99.90
8820;DHT22;4446;50.876;4.736;2023-04-24T01:47:38;8.90;99.90
8820;DHT22;4446;50.876;4.736;2023-04-24T01:50:07;8.80;99.90
8820;DHT22;4446;50.876;4.736;2023-04-24T01:52:34;8.80;99.90
8820;DHT22;4446;50.876;4.736;2023-04-24T01:55:02;8.80;99.90
8820;DHT22;4446;50.876;4.736;2023-04-24T01:57:31;8.70;99.90
8820;DHT22;4446;50.876;4.736;2023-04-24T01:59:58;8.60;99.90
8820;DHT22;4446;50.876;4.736;2023-04-24T02:02:25;8.60;99.90
8820;DHT22;4446;50.876;4.736;2023-04-24T02:04:53;8.60;99.90
8820;DHT22;4446;50.876;4.736;2023-04-24T02:07:20;8.50;99.90
8820;DHT22;4446;50.876;4.736;2023-04-24T02:09:47;8.50;99.90
8820;DHT22;4446;50.876;4.736;2023-04-24T02:12:14;8.50;99.90
8820;DHT22;4446;50.876;4.736;2023-04-24T02:14:42;8.50;99.90
8820;DHT22;4446;50.876;4.736;2023-04-24T02:17:09;8.50;99.90
8820;DHT22;4446;50.876;4.736;2023-04-24T02:19:38;8.50;99.90
8820;DHT22;4446;50.876;4.736;2023-04-24T02:22:06;8.50;99.90
8820;DHT22;4446;50.876;4.736;2023-04-24T02:24:32;8.40;99.90
8820;DHT22;4446;50.876;4.736;2023-04-24T02:27:00;8.40;99.90
8820;DHT22;4446;50.876;4.736;2023-04-24T02:29:27;8.40;99.90
8820;DHT22;4446;50.876;4.736;2023-04-24T02:31:56;8.50;99.90
8820;DHT22;4446;50.876;4.736;2023-04-24T02:34:23;8.50;99.90
8820;DHT22;4446;50.876;4.736;2023-04-24T02:36:50;8.40;99.90
8820;DHT22;4446;50.876;4.736;2023-04-24T02:39:19;8.40;99.90
8820;DHT22;4446;50.876;4.736;2023-04-24T02:41:46;8.40;99.90
8820;DHT22;4446;50.876;4.736;2023-04-24T02:44:13;8.40;99.90
8820;DHT22;4446;50.876;4.736;2023-04-24T02:46:41;8.40;99.90
8820;DHT22;4446;50.876;4.736;2023-04-24T02:49:09;8.40;99.90
8820;DHT22;4446;50.876;4.736;2023-04-24T02:51:37;8.40;99.90
8820;DHT22;4446;50.876;4.736;2023-04-24T02:54:07;8.40;99.90
8820;DHT22;4446;50.876;4.736;2023-04-24T02:56:35;8.40;99.90
8820;DHT22;4446;50.876;4.736;2023-04-24T02:59:02;8.40;99.90
8820;DHT22;4446;50.876;4.736;2023-04-24T03:01:29;8.40;99.90
8820;DHT22;4446;50.876;4.736;2023-04-24T03:03:56;8.50;99.90
8820;DHT22;4446;50.876;4.736;2023-04-24T03:06:25;8.40;99.90
8820;DHT22;4446;50.876;4.736;2023-04-24T03:08:52;8.40;99.90
8820;DHT22;4446;50.876;4.736;2023-04-24T03:11:20;8.40;99.90
8820;DHT22;4446;50.876;4.736;2023-04-24T03:13:47;8.40;99.90
8820;DHT22;4446;50.876;4.736;2023-04-24T03:16:14;8.40;99.90
8820;DHT22;4446;50.876;4.736;2023-04-24T03:18:41;8.40;99.90
8820;DHT22;4446;50.876;4.736;2023-04-24T03:21:08;8.40;99.90
8820;DHT22;4446;50.876;4.736;2023-04-24T03:23:36;8.30;99.90
8820;DHT22;4446;50.876;4.736;2023-04-24T03:26:04;8.30;99.90
8820;DHT22;4446;50.876;4.736;2023-04-24T03:28:31;8.30;99.90
8820;DHT22;4446;50.876;4.736;2023-04-24T03:30:58;8.30;99.90
8820;DHT22;4446;50.876;4.736;2023-04-24T03:33:25;8.30;99.90
8820;DHT22;4446;50.876;4.736;2023-04-24T03:35:52;8.40;99.90
8820;DHT22;4446;50.876;4.736;2023-04-24T03:38:19;8.30;99.90
8820;DHT22;4446;50.876;4.736;2023-04-24T03:40:47;8.40;99.90
8820;DHT22;4446;50.876;4.736;2023-04-24T03:43:14;8.30;99.90
8820;DHT22;4446;50.876;4.736;2023-04-24T03:45:41;8.30;99.90
8820;DHT22;4446;50.876;4.736;2023-04-24T03:48:08;8.30;99.90
8820;DHT22;4446;50.876;4.736;2023-04-24T03:50:35;8.20;99.90
8820;DHT22;4446;50.876;4.736;2023-04-24T03:53:02;8.30;99.90
8820;DHT22;4446;50.876;4.736;2023-04-24T03:55:30;8.30;99.90
8820;DHT22;4446;50.876;4.736;2023-04-24T03:57:58;8.20;99.90
8820;DHT22;4446;50.876;4.736;2023-04-24T04:00:25;8.30;99.90
8820;DHT22;4446;50.876;4.736;2023-04-24T04:02:53;8.20;99.90
8820;DHT22;4446;50.876;4.736;2023-04-24T04:05:20;8.20;99.90
8820;DHT22;4446;50.876;4.736;2023-04-24T04:07:47;8.20;99.90
8820;DHT22;4446;50.876;4.736;2023-04-24T04:10:14;8.20;99.90
8820;DHT22;4446;50.876;4.736;2023-04-24T04:12:42;8.20;99.90
8820;DHT22;4446;50.876;4.736;2023-04-24T04:15:11;8.20;99.90
8820;DHT22;4446;50.876;4.736;2023-04-24T04:17:38;8.30;99.90
8820;DHT22;4446;50.876;4.736;2023-04-24T04:20:06;8.30;99.90
8820;DHT22;4446;50.876;4.736;2023-04-24T04:22:35;8.20;99.90
8820;DHT22;4446;50.876;4.736;2023-04-24T04:25:02;8.30;99.90
8820;DHT22;4446;50.876;4.736;2023-04-24T04:27:30;8.20;99.90
8820;DHT22;4446;50.876;4.736;2023-04-24T04:29:57;8.30;99.90
8820;DHT22;4446;50.876;4.736;2023-04-24T04:32:28;8.30;99.90
8820;DHT22;4446;50.876;4.736;2023-04-24T04:34:55;8.30;99.90
8820;DHT22;4446;50.876;4.736;2023-04-24T04:37:22;8.30;99.90
8820;DHT22;4446;50.876;4.736;2023-04-24T04:39:49;8.20;99.90
8820;DHT22;4446;50.876;4.736;2023-04-24T04:42:16;8.20;99.90
8820;DHT22;4446;50.876;4.736;2023-04-24T04:44:44;8.30;99.90
8820;DHT22;4446;50.876;4.736;2023-04-24T04:47:11;8.30;99.90
8820;DHT22;4446;50.876;4.736;2023-04-24T04:49:40;8.30;99.90
8820;DHT22;4446;50.876;4.736;2023-04-24T04:52:09;8.30;99.90
8820;DHT22;4446;50.876;4.736;2023-04-24T04:54:38;8.30;99.90
8820;DHT22;4446;50.876;4.736;2023-04-24T04:57:05;8.30;99.90
8820;DHT22;4446;50.876;4.736;2023-04-24T04:59:32;8.30;99.90
8820;DHT22;4446;50.876;4.736;2023-04-24T05:01:59;8.30;99.90
8820;DHT22;4446;50.876;4.736;2023-04-24T05:04:28;8.30;99.90
8820;DHT22;4446;50.876;4.736;2023-04-24T05:06:57;8.30;99.90
8820;DHT22;4446;50.876;4.736;2023-04-24T05:09:24;8.30;99.90
8820;DHT22;4446;50.876;4.736;2023-04-24T05:11:52;8.30;99.90
8820;DHT22;4446;50.876;4.736;2023-04-24T05:14:19;8.30;99.90
8820;DHT22;4446;50.876;4.736;2023-04-24T05:16:47;8.20;99.90
8820;DHT22;4446;50.876;4.736;2023-04-24T05:19:14;8.20;99.90
8820;DHT22;4446;50.876;4.736;2023-04-24T05:21:41;8.20;99.90
8820;DHT22;4446;50.876;4.736;2023-04-24T05:24:10;8.20;99.90
8820;DHT22;4446;50.876;4.736;2023-04-24T05:26:37;8.20;99.90
8820;DHT22;4446;50.876;4.736;2023-04-24T05:29:04;8.20;99.90
8820;DHT22;4446;50.876;4.736;2023-04-24T05:31:31;8.20;99.90
8820;DHT22;4446;50.876;4.736;2023-04-24T05:33:58;8.20;99.90
8820;DHT22;4446;50.876;4.736;2023-04-24T05:36:25;8.20;99.90
8820;DHT22;4446;50.876;4.736;2023-04-24T05:38:52;8.20;99.90
8820;DHT22;4446;50.876;4.736;2023-04-24T05:41:21;8.20;99.90
8820;DHT22;4446;50.876;4.736;2023-04-24T05:43:48;8.20;99.90
8820;DHT22;4446;50.876;4.736;2023-04-24T05:46:15;8.20;99.90
8820;DHT22;4446;50.876;4.736;2023-04-24T05:48:42;8.10;99.90
8820;DHT22;4446;50.876;4.736;2023-04-24T05:51:09;8.10;99.90
8820;DHT22;4446;50.876;4.736;2023-04-24T05:53:36;8.10;99.90
8820;DHT22;4446;50.876;4.736;2023-04-24T05:56:04;8.10;99.90
8820;DHT22;4446;50.876;4.736;2023-04-24T05:58:32;8.10;99.90
8820;DHT22;4446;50.876;4.736;2023-04-24T06:00:59;8.00;99.90
8820;DHT22;4446;50.876;4.736;2023-04-24T06:03:27;8.00;99.90
8820;DHT22;4446;50.876;4.736;2023-04-24T06:05:54;7.90;99.90
8820;DHT22;4446;50.876;4.736;2023-04-24T06:08:21;8.00;99.90
8820;DHT22;4446;50.876;4.736;2023-04-24T06:10:48;8.00;99.90
8820;DHT22;4446;50.876;4.736;2023-04-24T06:13:15;7.90;99.90
8820;DHT22;4446;50.876;4.736;2023-04-24T06:15:44;8.00;99.90
8820;DHT22;4446;50.876;4.736;2023-04-24T06:18:10;8.00;99.90
8820;DHT22;4446;50.876;4.736;2023-04-24T06:20:38;8.00;99.90
8820;DHT22;4446;50.876;4.736;2023-04-24T06:23:05;8.00;99.90
8820;DHT22;4446;50.876;4.736;2023-04-24T06:25:32;8.00;99.90
8820;DHT22;4446;50.876;4.736;2023-04-24T06:28:00;8.00;99.90
8820;DHT22;4446;50.876;4.736;2023-04-24T06:30:27;8.00;99.90
8820;DHT22;4446;50.876;4.736;2023-04-24T06:32:56;8.00;99.90
8820;DHT22;4446;50.876;4.736;2023-04-24T06:35:23;8.00;99.90
8820;DHT22;4446;50.876;4.736;2023-04-24T06:37:50;8.00;99.90
8820;DHT22;4446;50.876;4.736;2023-04-24T06:40:17;8.00;99.90
8820;DHT22;4446;50.876;4.736;2023-04-24T06:42:45;8.00;99.90
8820;DHT22;4446;50.876;4.736;2023-04-24T06:45:12;8.00;99.90
8820;DHT22;4446;50.876;4.736;2023-04-24T06:47:39;8.10;99.90
8820;DHT22;4446;50.876;4.736;2023-04-24T06:50:08;8.00;99.90
8820;DHT22;4446;50.876;4.736;2023-04-24T06:52:35;8.10;99.90
8820;DHT22;4446;50.876;4.736;2023-04-24T06:55:03;8.10;99.90
8820;DHT22;4446;50.876;4.736;2023-04-24T06:57:30;8.10;99.90
8820;DHT22;4446;50.876;4.736;2023-04-24T06:59:58;8.20;99.90
8820;DHT22;4446;50.876;4.736;2023-04-24T07:02:25;8.20;99.90
8820;DHT22;4446;50.876;4.736;2023-04-24T07:04:52;8.10;99.90
8820;DHT22;4446;50.876;4.736;2023-04-24T07:07:20;8.10;99.90
8820;DHT22;4446;50.876;4.736;2023-04-24T07:09:49;8.20;99.90
8820;DHT22;4446;50.876;4.736;2023-04-24T07:12:16;8.20;99.90
8820;DHT22;4446;50.876;4.736;2023-04-24T07:14:46;8.20;99.90
8820;DHT22;4446;50.876;4.736;2023-04-24T07:17:13;8.30;99.90
8820;DHT22;4446;50.876;4.736;2023-04-24T07:19:40;8.30;99.90
8820;DHT22;4446;50.876;4.736;2023-04-24T07:22:07;8.40;99.90
8820;DHT22;4446;50.876;4.736;2023-04-24T07:24:38;8.40;99.90
8820;DHT22;4446;50.876;4.736;2023-04-24T07:27:05;8.50;99.90
8820;DHT22;4446;50.876;4.736;2023-04-24T07:29:32;8.50;99.90
8820;DHT22;4446;50.876;4.736;2023-04-24T07:31:59;8.50;99.90
8820;DHT22;4446;50.876;4.736;2023-04-24T07:34:26;8.50;99.90
8820;DHT22;4446;50.876;4.736;2023-04-24T07:36:53;8.50;99.90
8820;DHT22;4446;50.876;4.736;2023-04-24T07:39:20;8.50;99.90
8820;DHT22;4446;50.876;4.736;2023-04-24T07:41:49;8.40;99.90
8820;DHT22;4446;50.876;4.736;2023-04-24T07:44:16;8.40;99.90
8820;DHT22;4446;50.876;4.736;2023-04-24T07:46:43;8.40;99.90
8820;DHT22;4446;50.876;4.736;2023-04-24T07:49:10;8.30;99.90
8820;DHT22;4446;50.876;4.736;2023-04-24T07:51:37;8.40;99.90
8820;DHT22;4446;50.876;4.736;2023-04-24T07:54:04;8.40;99.90
8820;DHT22;4446;50.876;4.736;2023-04-24T07:56:32;8.40;99.90
8820;DHT22;4446;50.876;4.736;2023-04-24T07:59:00;8.40;99.90
8820;DHT22;4446;50.876;4.736;2023-04-24T08:01:28;8.50;99.90
8820;DHT22;4446;50.876;4.736;2023-04-24T08:03:55;8.50;99.90
8820;DHT22;4446;50.876;4.736;2023-04-24T08:06:22;8.50;99.90
8820;DHT22;4446;50.876;4.736;2023-04-24T08:08:49;8.40;99.90
8820;DHT22;4446;50.876;4.736;2023-04-24T08:11:17;8.50;99.90
8820;DHT22;4446;50.876;4.736;2023-04-24T08:13:44;8.60;99.90
8820;DHT22;4446;50.876;4.736;2023-04-24T08:16:12;8.80;99.90
8820;DHT22;4446;50.876;4.736;2023-04-24T08:18:39;9.00;99.90
8820;DHT22;4446;50.876;4.736;2023-04-24T08:21:06;9.20;99.90
8820;DHT22;4446;50.876;4.736;2023-04-24T08:23:33;9.40;99.90
8820;DHT22;4446;50.876;4.736;2023-04-24T08:26:01;9.50;99.90
8820;DHT22;4446;50.876;4.736;2023-04-24T08:28:28;9.60;99.90
8820;DHT22;4446;50.876;4.736;2023-04-24T08:30:55;9.50;99.90
8820;DHT22;4446;50.876;4.736;2023-04-24T08:33:24;9.50;99.90
8820;DHT22;4446;50.876;4.736;2023-04-24T08:35:52;9.40;99.90
8820;DHT22;4446;50.876;4.736;2023-04-24T08:38:19;9.40;99.90
8820;DHT22;4446;50.876;4.736;2023-04-24T08:40:47;9.30;99.90
8820;DHT22;4446;50.876;4.736;2023-04-24T08:43:15;9.10;99.90
8820;DHT22;4446;50.876;4.736;2023-04-24T08:45:43;9.10;99.90
8820;DHT22;4446;50.876;4.736;2023-04-24T08:48:10;9.10;99.90
8820;DHT22;4446;50.876;4.736;2023-04-24T08:50:38;9.20;99.90
8820;DHT22;4446;50.876;4.736;2023-04-24T08:53:08;9.40;99.90
8820;DHT22;4446;50.876;4.736;2023-04-24T08:55:36;9.40;99.90
8820;DHT22;4446;50.876;4.736;2023-04-24T08:58:03;9.50;99.90
8820;DHT22;4446;50.876;4.736;2023-04-24T09:00:31;9.70;99.90
8820;DHT22;4446;50.876;4.736;2023-04-24T09:03:00;9.80;99.90
8820;DHT22;4446;50.876;4.736;2023-04-24T09:05:29;9.90;99.90
8820;DHT22;4446;50.876;4.736;2023-04-24T09:07:59;10.00;99.90
8820;DHT22;4446;50.876;4.736;2023-04-24T09:10:27;10.00;99.90
8820;DHT22;4446;50.876;4.736;2023-04-24T09:12:56;9.90;99.90
8820;DHT22;4446;50.876;4.736;2023-04-24T09:15:27;9.90;99.90
8820;DHT22;4446;50.876;4.736;2023-04-24T09:17:54;9.90;99.90
8820;DHT22;4446;50.876;4.736;2023-04-24T09:20:21;9.90;99.90
8820;DHT22;4446;50.876;4.736;2023-04-24T09:22:54;9.90;99.90
8820;DHT22;4446;50.876;4.736;2023-04-24T09:25:23;9.90;99.90
8820;DHT22;4446;50.876;4.736;2023-04-24T09:27:53;10.00;99.90
8820;DHT22;4446;50.876;4.736;2023-04-24T09:30:21;10.00;99.90
8820;DHT22;4446;50.876;4.736;2023-04-24T09:32:49;10.00;99.90
8820;DHT22;4446;50.876;4.736;2023-04-24T09:35:16;10.10;99.90
8820;DHT22;4446;50.876;4.736;2023-04-24T09:37:44;10.20;99.90
8820;DHT22;4446;50.876;4.736;2023-04-24T09:40:16;10.20;99.90
8820;DHT22;4446;50.876;4.736;2023-04-24T09:42:45;10.40;99.90
8820;DHT22;4446;50.876;4.736;2023-04-24T09:45:13;10.60;99.90
8820;DHT22;4446;50.876;4.736;2023-04-24T09:47:40;10.70;99.90
8820;DHT22;4446;50.876;4.736;2023-04-24T09:50:15;10.70;99.90
8820;DHT22;4446;50.876;4.736;2023-04-24T09:52:44;10.60;99.90
8820;DHT22;4446;50.876;4.736;2023-04-24T09:55:16;10.40;99.90
8820;DHT22;4446;50.876;4.736;2023-04-24T09:57:52;10.20;99.90
8820;DHT22;4446;50.876;4.736;2023-04-24T10:00:24;10.20;99.90
8820;DHT22;4446;50.876;4.736;2023-04-24T10:02:56;10.30;99.90
8820;DHT22;4446;50.876;4.736;2023-04-24T10:05:25;10.30;99.90
8820;DHT22;4446;50.876;4.736;2023-04-24T10:07:57;10.50;99.90
8820;DHT22;4446;50.876;4.736;2023-04-24T10:10:24;10.70;99.90
8820;DHT22;4446;50.876;4.736;2023-04-24T10:12:53;10.90;99.90
8820;DHT22;4446;50.876;4.736;2023-04-24T10:15:20;11.10;99.90
8820;DHT22;4446;50.876;4.736;2023-04-24T10:17:48;11.20;99.90
8820;DHT22;4446;50.876;4.736;2023-04-24T10:20:19;11.30;99.90
8820;DHT22;4446;50.876;4.736;2023-04-24T10:22:48;11.30;99.90
8820;DHT22;4446;50.876;4.736;2023-04-24T10:25:19;11.20;99.90
8820;DHT22;4446;50.876;4.736;2023-04-24T10:27:47;11.20;99.90
8820;DHT22;4446;50.876;4.736;2023-04-24T10:30:16;11.20;99.90
8820;DHT22;4446;50.876;4.736;2023-04-24T10:32:44;11.30;99.90
8820;DHT22;4446;50.876;4.736;2023-04-24T10:35:13;11.40;99.90
8820;DHT22;4446;50.876;4.736;2023-04-24T10:37:43;11.50;99.90
8820;DHT22;4446;50.876;4.736;2023-04-24T10:40:12;11.60;99.90
8820;DHT22;4446;50.876;4.736;2023-04-24T10:42:42;11.90;99.90
8820;DHT22;4446;50.876;4.736;2023-04-24T10:45:18;12.10;99.90
8820;DHT22;4446;50.876;4.736;2023-04-24T10:47:57;12.20;99.90
8820;DHT22;4446;50.876;4.736;2023-04-24T10:50:27;12.30;99.90
8820;DHT22;4446;50.876;4.736;2023-04-24T10:53:05;12.30;99.90
8820;DHT22;4446;50.876;4.736;2023-04-24T10:55:50;12.20;99.90
8820;DHT22;4446;50.876;4.736;2023-04-24T10:58:22;12.20;99.90
8820;DHT22;4446;50.876;4.736;2023-04-24T11:00:57;12.10;99.90
8820;DHT22;4446;50.876;4.736;2023-04-24T11:03:26;11.90;99.90
8820;DHT22;4446;50.876;4.736;2023-04-24T11:05:59;11.70;99.90
8820;DHT22;4446;50.876;4.736;2023-04-24T11:08:28;11.60;99.90
8820;DHT22;4446;50.876;4.736;2023-04-24T11:10:58;11.60;99.90
8820;DHT22;4446;50.876;4.736;2023-04-24T11:13:29;11.60;99.90
8820;DHT22;4446;50.876;4.736;2023-04-24T11:16:26;11.70;99.90
8820;DHT22;4446;50.876;4.736;2023-04-24T11:19:00;11.70;99.90
8820;DHT22;4446;50.876;4.736;2023-04-24T11:21:31;11.80;99.90
8820;DHT22;4446;50.876;4.736;2023-04-24T11:23:58;11.90;99.90
8820;DHT22;4446;50.876;4.736;2023-04-24T11:26:46;12.10;99.90
8820;DHT22;4446;50.876;4.736;2023-04-24T11:29:13;12.30;99.90
8820;DHT22;4446;50.876;4.736;2023-04-24T11:31:41;12.40;99.90
8820;DHT22;4446;50.876;4.736;2023-04-24T11:34:14;12.50;99.90
8820;DHT22;4446;50.876;4.736;2023-04-24T11:36:43;12.50;99.90
8820;DHT22;4446;50.876;4.736;2023-04-24T11:39:10;12.50;99.90
8820;DHT22;4446;50.876;4.736;2023-04-24T11:41:38;12.20;99.90
8820;DHT22;4446;50.876;4.736;2023-04-24T11:44:07;12.20;99.90
8820;DHT22;4446;50.876;4.736;2023-04-24T11:46:34;12.20;99.90
8820;DHT22;4446;50.876;4.736;2023-04-24T11:49:04;12.20;99.90
8820;DHT22;4446;50.876;4.736;2023-04-24T11:51:32;12.30;99.90
8820;DHT22;4446;50.876;4.736;2023-04-24T11:53:59;12.40;99.90
8820;DHT22;4446;50.876;4.736;2023-04-24T11:56:26;12.60;99.90
8820;DHT22;4446;50.876;4.736;2023-04-24T11:58:53;12.90;99.90
8820;DHT22;4446;50.876;4.736;2023-04-24T12:01:20;13.20;99.90
8820;DHT22;4446;50.876;4.736;2023-04-24T12:03:48;13.20;99.90
8820;DHT22;4446;50.876;4.736;2023-04-24T12:06:18;13.30;99.90
8820;DHT22;4446;50.876;4.736;2023-04-24T12:08:46;13.40;99.90
8820;DHT22;4446;50.876;4.736;2023-04-24T12:11:16;13.70;99.90
8820;DHT22;4446;50.876;4.736;2023-04-24T12:13:44;14.00;99.90
8820;DHT22;4446;50.876;4.736;2023-04-24T12:16:12;14.10;99.90
8820;DHT22;4446;50.876;4.736;2023-04-24T12:18:43;14.10;99.90
8820;DHT22;4446;50.876;4.736;2023-04-24T12:21:19;14.10;99.90
8820;DHT22;4446;50.876;4.736;2023-04-24T12:23:47;13.90;99.90
8820;DHT22;4446;50.876;4.736;2023-04-24T12:26:17;13.80;99.90
8820;DHT22;4446;50.876;4.736;2023-04-24T12:28:46;13.60;99.90
8820;DHT22;4446;50.876;4.736;2023-04-24T12:31:14;13.30;99.90
8820;DHT22;4446;50.876;4.736;2023-04-24T12:33:41;13.30;99.90
8820;DHT22;4446;50.876;4.736;2023-04-24T12:36:10;13.30;99.90
8820;DHT22;4446;50.876;4.736;2023-04-24T12:38:43;13.30;99.90
8820;DHT22;4446;50.876;4.736;2023-04-24T12:41:13;13.40;99.90
8820;DHT22;4446;50.876;4.736;2023-04-24T12:43:51;13.60;99.90
8820;DHT22;4446;50.876;4.736;2023-04-24T12:46:19;13.80;99.90
8820;DHT22;4446;50.876;4.736;2023-04-24T12:48:45;14.10;99.90
8820;DHT22;4446;50.876;4.736;2023-04-24T12:51:12;14.10;99.90
8820;DHT22;4446;50.876;4.736;2023-04-24T12:53:41;14.30;99.90
8820;DHT22;4446;50.876;4.736;2023-04-24T12:56:08;14.30;99.90
8820;DHT22;4446;50.876;4.736;2023-04-24T12:58:35;14.00;99.90
8820;DHT22;4446;50.876;4.736;2023-04-24T13:01:02;13.80;99.90
8820;DHT22;4446;50.876;4.736;2023-04-24T13:03:29;14.00;99.90
8820;DHT22;4446;50.876;4.736;2023-04-24T13:05:56;14.00;99.90
8820;DHT22;4446;50.876;4.736;2023-04-24T13:08:23;14.10;99.90
8820;DHT22;4446;50.876;4.736;2023-04-24T13:10:51;14.40;99.90
8820;DHT22;4446;50.876;4.736;2023-04-24T13:13:19;14.50;99.90
8820;DHT22;4446;50.876;4.736;2023-04-24T13:15:46;14.70;99.90
8820;DHT22;4446;50.876;4.736;2023-04-24T13:18:13;15.00;99.90
8820;DHT22;4446;50.876;4.736;2023-04-24T13:20:40;15.00;99.90
8820;DHT22;4446;50.876;4.736;2023-04-24T13:23:08;14.70;99.90
8820;DHT22;4446;50.876;4.736;2023-04-24T13:25:36;14.40;99.90
8820;DHT22;4446;50.876;4.736;2023-04-24T13:28:05;14.20;99.90
8820;DHT22;4446;50.876;4.736;2023-04-24T13:30:32;13.90;99.90
8820;DHT22;4446;50.876;4.736;2023-04-24T13:33:00;13.80;99.90
8820;DHT22;4446;50.876;4.736;2023-04-24T13:35:27;13.90;99.90
8820;DHT22;4446;50.876;4.736;2023-04-24T13:37:54;14.00;99.90
8820;DHT22;4446;50.876;4.736;2023-04-24T13:40:21;14.10;99.90
8820;DHT22;4446;50.876;4.736;2023-04-24T13:42:48;13.90;99.90
8820;DHT22;4446;50.876;4.736;2023-04-24T13:45:17;14.10;99.90
8820;DHT22;4446;50.876;4.736;2023-04-24T13:47:43;14.70;99.90
8820;DHT22;4446;50.876;4.736;2023-04-24T13:50:11;15.40;99.90
8820;DHT22;4446;50.876;4.736;2023-04-24T13:52:38;15.90;99.90
8820;DHT22;4446;50.876;4.736;2023-04-24T13:55:06;16.20;99.90
8820;DHT22;4446;50.876;4.736;2023-04-24T13:57:33;16.50;99.90
8820;DHT22;4446;50.876;4.736;2023-04-24T14:00:00;16.70;99.90
8820;DHT22;4446;50.876;4.736;2023-04-24T14:02:30;17.00;99.90
8820;DHT22;4446;50.876;4.736;2023-04-24T14:04:57;17.10;99.90
8820;DHT22;4446;50.876;4.736;2023-04-24T14:07:24;17.10;99.90
8820;DHT22;4446;50.876;4.736;2023-04-24T14:09:51;16.90;99.90
8820;DHT22;4446;50.876;4.736;2023-04-24T14:12:20;16.70;99.90
8820;DHT22;4446;50.876;4.736;2023-04-24T14:14:47;16.50;99.90
8820;DHT22;4446;50.876;4.736;2023-04-24T14:17:14;16.10;99.90
8820;DHT22;4446;50.876;4.736;2023-04-24T14:19:43;15.70;99.90
8820;DHT22;4446;50.876;4.736;2023-04-24T14:22:10;15.30;99.90
8820;DHT22;4446;50.876;4.736;2023-04-24T14:24:37;15.00;99.90
8820;DHT22;4446;50.876;4.736;2023-04-24T14:27:04;14.60;99.90
8820;DHT22;4446;50.876;4.736;2023-04-24T14:29:31;14.40;99.90
8820;DHT22;4446;50.876;4.736;2023-04-24T14:31:58;14.30;99.90
8820;DHT22;4446;50.876;4.736;2023-04-24T14:34:25;14.30;99.90
8820;DHT22;4446;50.876;4.736;2023-04-24T14:36:54;14.40;99.90
8820;DHT22;4446;50.876;4.736;2023-04-24T14:39:21;14.80;99.90
8820;DHT22;4446;50.876;4.736;2023-04-24T14:41:48;15.40;99.90
8820;DHT22;4446;50.876;4.736;2023-04-24T14:44:15;15.60;99.90
8820;DHT22;4446;50.876;4.736;2023-04-24T14:46:42;15.20;99.90
8820;DHT22;4446;50.876;4.736;2023-04-24T14:49:09;14.80;99.90
8820;DHT22;4446;50.876;4.736;2023-04-24T14:51:37;14.60;99.90
8820;DHT22;4446;50.876;4.736;2023-04-24T14:54:05;14.30;99.90
8820;DHT22;4446;50.876;4.736;2023-04-24T14:56:33;14.00;99.90
8820;DHT22;4446;50.876;4.736;2023-04-24T14:59:00;14.00;99.90
8820;DHT22;4446;50.876;4.736;2023-04-24T15:01:27;13.80;99.90
8820;DHT22;4446;50.876;4.736;2023-04-24T15:03:54;13.70;99.90
8820;DHT22;4446;50.876;4.736;2023-04-24T15:06:21;13.60;99.90
8820;DHT22;4446;50.876;4.736;2023-04-24T15:08:48;13.50;99.90
8820;DHT22;4446;50.876;4.736;2023-04-24T15:11:17;13.30;99.90
8820;DHT22;4446;50.876;4.736;2023-04-24T15:13:44;13.10;99.90
8820;DHT22;4446;50.876;4.736;2023-04-24T15:16:11;13.10;99.90
8820;DHT22;4446;50.876;4.736;2023-04-24T15:18:38;13.10;99.90
8820;DHT22;4446;50.876;4.736;2023-04-24T15:21:05;13.10;99.90
8820;DHT22;4446;50.876;4.736;2023-04-24T15:23:35;13.00;99.90
8820;DHT22;4446;50.876;4.736;2023-04-24T15:26:02;13.00;99.90
8820;DHT22;4446;50.876;4.736;2023-04-24T15:28:31;13.10;99.90
8820;DHT22;4446;50.876;4.736;2023-04-24T15:30:58;13.20;99.90
8820;DHT22;4446;50.876;4.736;2023-04-24T15:33:25;13.20;99.90
8820;DHT22;4446;50.876;4.736;2023-04-24T15:35:52;13.30;99.90
8820;DHT22;4446;50.876;4.736;2023-04-24T15:38:19;13.50;99.90
8820;DHT22;4446;50.876;4.736;2023-04-24T15:40:46;13.60;99.90
8820;DHT22;4446;50.876;4.736;2023-04-24T15:43:14;13.50;99.90
8820;DHT22;4446;50.876;4.736;2023-04-24T15:45:43;13.30;99.90
8820;DHT22;4446;50.876;4.736;2023-04-24T15:48:10;13.20;99.90
8820;DHT22;4446;50.876;4.736;2023-04-24T15:50:38;13.10;99.90
8820;DHT22;4446;50.876;4.736;2023-04-24T15:53:08;13.00;99.90
8820;DHT22;4446;50.876;4.736;2023-04-24T15:55:35;12.80;99.90
8820;DHT22;4446;50.876;4.736;2023-04-24T15:58:03;12.70;99.90
8820;DHT22;4446;50.876;4.736;2023-04-24T16:00:30;12.80;99.90
8820;DHT22;4446;50.876;4.736;2023-04-24T16:03:00;12.80;99.90
8820;DHT22;4446;50.876;4.736;2023-04-24T16:05:27;12.80;99.90
8820;DHT22;4446;50.876;4.736;2023-04-24T16:07:55;12.80;99.90
8820;DHT22;4446;50.876;4.736;2023-04-24T16:10:22;12.70;99.90
8820;DHT22;4446;50.876;4.736;2023-04-24T16:12:49;12.80;99.90
8820;DHT22;4446;50.876;4.736;2023-04-24T16:15:18;12.90;99.90
8820;DHT22;4446;50.876;4.736;2023-04-24T16:17:46;13.00;99.90